To NAV CANADA Home Page Login to a new session Search on AWWS site Feedback and Comments Disclaimer Vers la page française équivalente Tips FAQ What's new on the site To the Forecasts and Observations / NOTAM section To "File a Flight Plan" website Publications and other links Update of the User's profile FIC Telephone Numbers My Weather Data Folder Route Weather Data Regional Weather Data Local Weather Data To the Forecasts and Observations / NOTAM section
Request Generated 08/01/2015 at 07:44:48 UTC . Weather information available at that time is displayed.

METAR/TAF

MARYS HARBOUR/NL    (show WxCam)

SPECI CYMH 010740Z AUTO 15014G19KT 1 1/2SM BR OVC003 09/08 A2981 RMK
SLP093=
SPECI CYMH 010732Z AUTO 15012G17KT 2SM BR OVC003 09/08 A2980 RMK VIS
VRB 1 1/2-2 1/2 SLP092=
SPECI CYMH 010723Z AUTO 15011KT 2 1/2SM BR OVC003 09/08 A2980 RMK
SLP092=
SPECI CYMH 010708Z AUTO 15010G15KT 5SM BR OVC003 09/08 A2981 RMK
SLP095=
METAR CYMH 010700Z AUTO 15008KT 9SM OVC003 09/08 A2981 RMK SLP096=
SPECI CYMH 010640Z AUTO 15007KT 7SM OVC003 09/08 A2982 RMK SLP098=
SPECI CYMH 010633Z AUTO 14007KT 3SM BR OVC003 09/08 A2982 RMK SLP099=
SPECI CYMH 010628Z AUTO 15009KT 2 1/2SM BR OVC003 09/08 A2982 RMK
SLP099=
SPECI CYMH 010603Z AUTO 14008KT 1 3/4SM BR OVC003 09/08 A2982 RMK
SLP098=
METAR CYMH 010600Z AUTO 14010KT 1 1/2SM BR OVC003 09/08 A2982 RMK
SLP098=
METAR CYMH 010500Z AUTO 15012G17KT 3/4SM BR VV003 09/08 A2984 RMK
SLP106=

*** REMARK        : Forecast period has ended; this was the last TAF issued
*** REMARQUE : La période de prévision est échue; ceci était le dernier TAF qui a été émis
TAF AMD CYMH 010133Z 0101/0103 14005KT 5SM BR OVC004 TEMPO 0101/0103
P6SM NSW OVC010
RMK FCST BASED ON AUTO OBS. NXT FCST WILL BE ISSUED AT 010845Z=
Your time UTC time
Weather data provided by Environment Canada and NAV CANADA